Página principal
METAR-TAF:

METAR-TAF

Aeroportos :

Carachi, Paquistão

Aeroporto Internacional Jinnah

latitude: 24-54N, longitude: 067-08E, altura: 21 m

Observação actual do tempo

O boletim foi feito há 10 minutos, às 13:25 UTC
Vento 11 kt de sudoeste
Temperatura 33°C
Humidade 32%
Pressão 1009 hPa
Visibilidade: 5000 m
bruma

METAR: OPKC 251325Z 23011KT 5000 HZ NSC 33/14 Q1009 NOSIG

Hora: 18:35 (13:35 UTC)

Previsão

O boletim foi feito há 4 horas e 5 minutos, às 09:30 UTC
Previsão válida de 25 às 12 UTC a 26 às 18 UTC
Vento 8 kt de oeste
Visibilidade: 6000 m
Nuvens dispersasa uma altura de 2000 ft
Temporariamente
de 26 às 01 UTC a 26 às 05 UTC
Vento 5 kt de oeste
Visibilidade: 4000 m
Nuvens dispersasa uma altura de 2000 ft
fumo
Tornando-se
de 26 às 06 UTC a 26 às 08 UTC
Vento 8 kt de oes-sudoeste com rajadas de 18 kt
Visibilidade: 7000 m

TAF: OPKC 250930Z 2512/2618 26008KT 6000 SCT020 TEMPO 2601/2605 27005KT 4000 FU SCT020 BECMG 2606/2608 24008G18KT 7000 NSC

Observações e previsões do tempo de mais de 4000 aeroportos (mensagens METAR e TAF).

As estações disponíveis são os pontos amarelos e vermelhos sobre o mapa.

Mova o rato sobre o mapa para ver o nome da estação.

Depois clique no ponto para visualizar as observações e previsões meteorológicas.

Para alterar o mapa : clique nos botões verdes com uma cruz preta para aumentar o zoom; no botão verde com uma pitada de zoom; ou nas setas verdes para mapas adjacentes.


METAR-TAF: